首页
METAR-TAF:

METAR-TAF

机场 :

Huron County Memorial Airport

Bad Axe, 密歇根州, 美国

纬度: 43-46-51N, 经度: 082-59-08W, 海拔: 233米

当前天气观测

该预报发布于17分钟前的02:56 UTC
风速9节,风向西
温度 -9°C
湿度 73%
气压 1033 hPa
能見度: 16.1公里
散云层高于2400英尺

METAR: KBAX 120256Z AUTO 28009KT 10SM SCT024 M09/M13 A3049 RMK AO2 T10921130

时间: 22:13 (03:13 UTC)


TAF: 丢失

超过4000个机场的气象观测和天气预报(METAR&TAF报告)。

可查询的气象台以黄色和红色小点在地图上表示。

将鼠标移到小点上方,可查看气象台名称。

然后点击查看天气观测和预报。

如需切换地图:点击带黑十字的绿色按钮放大地图;点击带横线的绿色按钮缩小地图;或者点击绿色箭头查看邻近地区的地图。


METAR-TAF: